Time;durP1;ratioP1;P1;durP2;ratioP2;P2;SDS_P1;SDS_P2;PMS_P1;PMS_P2;Temp;Humidity;BMP_temperature;BMP_pressure;BME280_temperature;BME280_humidity;BME280_pressure;Samples;Min_cycle;Max_cycle;Signal;HPM_P1;HPM_P2
2023/12/11 00:01:38;;;;;;;38.20;7.68;;;10.60;99.90;;;;;;5094527;28;20032;-70
2023/12/11 00:04:03;;;;;;;29.90;5.80;;;10.60;99.90;;;;;;5095797;28;20387;-70
2023/12/11 00:06:29;;;;;;;28.75;6.13;;;10.60;99.90;;;;;;5097933;28;20024;-70
2023/12/11 00:08:55;;;;;;;27.95;5.60;;;10.60;99.90;;;;;;5094303;28;20044;-70
2023/12/11 00:11:20;;;;;;;35.25;6.03;;;10.60;99.90;;;;;;5099839;28;20016;-70
2023/12/11 00:13:46;;;;;;;34.63;6.85;;;10.60;99.90;;;;;;5100329;28;20078;-70
2023/12/11 00:16:12;;;;;;;42.50;7.43;;;10.60;99.90;;;;;;5100520;28;20047;-70
2023/12/11 00:18:37;;;;;;;29.98;5.90;;;10.60;99.90;;;;;;5098447;28;20074;-70
2023/12/11 00:21:03;;;;;;;34.03;7.45;;;10.50;99.90;;;;;;5101115;28;20027;-70
2023/12/11 00:23:29;;;;;;;31.92;5.85;;;10.50;99.90;;;;;;5097951;28;20031;-69
2023/12/11 00:25:54;;;;;;;29.25;6.25;;;10.50;99.90;;;;;;5094585;28;20034;-70
2023/12/11 00:28:20;;;;;;;29.15;5.93;;;10.50;99.90;;;;;;5097049;28;20488;-70
2023/12/11 00:30:48;;;;;;;38.47;7.43;;;10.40;99.90;;;;;;5096096;28;20103;-69
2023/12/11 00:33:14;;;;;;;40.00;6.63;;;10.40;99.90;;;;;;5099998;28;20093;-70
2023/12/11 00:35:40;;;;;;;32.95;6.65;;;10.40;99.90;;;;;;5094870;28;20028;-70
2023/12/11 00:38:05;;;;;;;36.55;7.93;;;10.40;99.90;;;;;;5099848;28;20023;-69
2023/12/11 00:40:31;;;;;;;43.42;7.43;;;10.30;99.90;;;;;;5090789;28;20502;-70
2023/12/11 00:42:56;;;;;;;41.17;6.45;;;10.30;99.90;;;;;;5095486;28;20023;-70
2023/12/11 00:45:22;;;;;;;37.08;8.02;;;10.30;99.90;;;;;;5099087;28;20395;-70
2023/12/11 00:47:48;;;;;;;36.53;6.95;;;10.30;99.90;;;;;;5095900;28;20130;-69
2023/12/11 00:50:13;;;;;;;39.95;6.68;;;10.30;99.90;;;;;;5098076;28;20394;-70
2023/12/11 00:52:39;;;;;;;37.45;6.90;;;10.30;99.90;;;;;;5097935;28;20024;-70
2023/12/11 00:55:05;;;;;;;39.55;7.80;;;10.30;99.90;;;;;;5094412;28;20024;-70
2023/12/11 00:57:31;;;;;;;34.65;6.95;;;10.30;99.90;;;;;;5098561;28;20372;-70
2023/12/11 00:59:57;;;;;;;28.58;6.68;;;10.30;99.90;;;;;;5094667;28;20031;-70
2023/12/11 01:02:22;;;;;;;42.97;7.05;;;10.30;99.90;;;;;;5096187;28;20054;-70
2023/12/11 01:04:48;;;;;;;35.97;7.50;;;10.30;99.90;;;;;;5100940;28;20024;-69
2023/12/11 01:07:13;;;;;;;34.70;5.03;;;10.20;99.90;;;;;;5101594;28;20067;-69
2023/12/11 01:09:41;;;;;;;42.42;10.35;;;10.20;99.90;;;;;;5101523;28;20024;-70
2023/12/11 01:12:07;;;;;;;41.58;6.00;;;10.30;99.90;;;;;;5103860;28;20015;-70
2023/12/11 01:14:32;;;;;;;43.88;6.85;;;10.20;99.90;;;;;;5104140;28;20462;-70
2023/12/11 01:16:58;;;;;;;41.30;8.10;;;10.30;99.90;;;;;;5098612;28;20039;-69
2023/12/11 01:19:23;;;;;;;41.53;6.80;;;10.20;99.90;;;;;;5102168;28;20058;-69
2023/12/11 01:21:49;;;;;;;32.47;5.68;;;10.30;99.90;;;;;;5103792;28;20023;-70
2023/12/11 01:24:15;;;;;;;29.92;7.68;;;10.30;99.90;;;;;;5100685;28;20364;-70
2023/12/11 01:26:40;;;;;;;40.30;6.72;;;10.30;99.90;;;;;;5101099;28;20027;-70
2023/12/11 01:29:06;;;;;;;33.47;7.72;;;10.30;99.90;;;;;;5097909;28;20052;-69
2023/12/11 01:31:31;;;;;;;40.03;8.40;;;10.30;99.90;;;;;;5098303;28;20061;-69
2023/12/11 01:33:57;;;;;;;30.77;6.03;;;10.40;99.90;;;;;;5102518;28;20036;-70
2023/12/11 01:36:22;;;;;;;26.95;7.35;;;10.30;99.90;;;;;;5101429;28;20032;-70
2023/12/11 01:38:50;;;;;;;27.17;5.78;;;10.30;99.90;;;;;;5098699;28;20059;-70
2023/12/11 01:41:16;;;;;;;39.80;8.00;;;10.30;99.90;;;;;;5102496;28;20035;-69
2023/12/11 01:43:50;;;;;;;42.33;7.78;;;10.30;99.90;;;;;;5101620;28;20035;-69
2023/12/11 01:46:18;;;;;;;23.75;5.55;;;10.30;99.90;;;;;;5102065;28;20015;-70
2023/12/11 01:48:44;;;;;;;32.03;5.72;;;10.30;99.90;;;;;;5100821;28;20028;-69
2023/12/11 01:51:10;;;;;;;28.52;5.43;;;10.30;99.90;;;;;;5099862;28;20050;-69
2023/12/11 01:53:36;;;;;;;28.73;6.18;;;10.30;99.90;;;;;;5103015;28;20023;-69
2023/12/11 01:56:02;;;;;;;36.45;6.68;;;10.30;99.90;;;;;;5102471;28;20032;-69
2023/12/11 01:58:29;;;;;;;36.88;6.43;;;10.40;99.90;;;;;;5097274;28;20024;-69
2023/12/11 02:00:55;;;;;;;33.83;6.03;;;10.50;99.90;;;;;;5103227;28;20119;-70
2023/12/11 02:03:22;;;;;;;30.42;6.70;;;10.40;99.90;;;;;;5096904;28;20692;-70
2023/12/11 02:05:49;;;;;;;22.40;5.85;;;10.50;99.90;;;;;;5102402;28;20016;-70
2023/12/11 02:08:15;;;;;;;30.35;5.28;;;10.50;99.90;;;;;;5101537;28;20031;-70
2023/12/11 02:10:41;;;;;;;36.00;6.13;;;10.60;99.90;;;;;;5099669;28;20483;-69
2023/12/11 02:13:07;;;;;;;35.58;6.45;;;10.60;99.90;;;;;;5100213;28;20028;-69
2023/12/11 02:15:40;;;;;;;32.00;5.57;;;10.60;99.90;;;;;;5102122;28;20483;-69
2023/12/11 02:18:07;;;;;;;34.73;5.63;;;10.60;99.90;;;;;;5098885;28;20016;-70
2023/12/11 02:20:33;;;;;;;30.35;6.03;;;10.60;99.90;;;;;;5103309;28;20043;-70
2023/12/11 02:23:04;;;;;;;31.88;5.55;;;10.70;99.90;;;;;;5099221;28;20051;-69
2023/12/11 02:25:31;;;;;;;36.63;7.43;;;10.70;99.90;;;;;;5102071;28;20474;-69
2023/12/11 02:27:58;;;;;;;31.15;6.65;;;10.70;99.90;;;;;;5100342;28;20019;-69
2023/12/11 02:30:24;;;;;;;37.17;5.95;;;10.70;99.90;;;;;;5098863;28;20048;-70
2023/12/11 02:32:52;;;;;;;30.17;5.07;;;10.80;99.90;;;;;;5101009;28;20038;-69
2023/12/11 02:35:18;;;;;;;24.92;4.93;;;10.80;99.90;;;;;;5102111;28;20028;-69
2023/12/11 02:37:44;;;;;;;36.05;5.28;;;10.80;99.90;;;;;;5099798;28;20050;-69
2023/12/11 02:40:09;;;;;;;37.03;6.32;;;10.80;99.90;;;;;;5101204;28;20032;-70
2023/12/11 02:42:35;;;;;;;38.83;8.32;;;10.80;99.90;;;;;;5098781;28;20051;-70
2023/12/11 02:45:01;;;;;;;34.60;6.90;;;10.80;99.90;;;;;;5099409;28;21035;-69
2023/12/11 02:47:26;;;;;;;40.03;7.43;;;10.80;99.90;;;;;;5101420;28;20023;-69
2023/12/11 02:49:52;;;;;;;32.85;5.97;;;10.80;99.90;;;;;;5102668;28;20023;-70
2023/12/11 02:52:17;;;;;;;35.35;8.10;;;10.80;99.90;;;;;;5097471;28;20020;-70
2023/12/11 02:54:43;;;;;;;33.80;6.00;;;10.70;99.90;;;;;;5102804;28;20027;-70
2023/12/11 02:57:09;;;;;;;34.88;5.93;;;10.70;99.90;;;;;;5098061;28;20025;-71
2023/12/11 02:59:35;;;;;;;37.25;5.90;;;10.70;99.90;;;;;;5098762;28;20026;-70
2023/12/11 03:02:00;;;;;;;25.73;4.68;;;10.60;99.90;;;;;;5098109;28;20020;-70
2023/12/11 03:04:26;;;;;;;36.15;6.95;;;10.60;99.90;;;;;;5102317;28;20028;-70
2023/12/11 03:06:52;;;;;;;35.58;6.15;;;10.60;99.90;;;;;;5097759;28;20020;-71
2023/12/11 03:09:17;;;;;;;28.95;7.03;;;10.60;99.90;;;;;;5101537;28;20020;-71
2023/12/11 03:11:43;;;;;;;28.63;5.53;;;10.60;99.90;;;;;;5099567;28;20107;-70
2023/12/11 03:14:08;;;;;;;29.85;5.30;;;10.60;99.90;;;;;;5099699;28;20478;-70
2023/12/11 03:16:34;;;;;;;32.10;5.25;;;10.60;99.90;;;;;;5102478;28;20020;-70
2023/12/11 03:19:00;;;;;;;36.05;6.35;;;10.60;99.90;;;;;;5099764;28;20032;-70
2023/12/11 03:21:26;;;;;;;46.30;8.45;;;10.60;99.90;;;;;;5094712;28;20479;-71
2023/12/11 03:23:51;;;;;;;26.23;5.43;;;10.60;99.90;;;;;;5101477;28;20512;-71
2023/12/11 03:26:17;;;;;;;23.55;3.45;;;10.50;99.90;;;;;;5095167;28;20024;-71
2023/12/11 03:28:42;;;;;;;16.10;4.03;;;10.40;99.90;;;;;;5097264;28;20036;-71
2023/12/11 03:31:08;;;;;;;22.38;4.65;;;10.40;99.90;;;;;;5098386;28;20475;-70
2023/12/11 03:33:33;;;;;;;36.97;6.50;;;10.30;99.90;;;;;;5100468;28;20363;-70
2023/12/11 03:35:59;;;;;;;28.73;5.10;;;10.30;99.90;;;;;;5095928;28;20055;-70
2023/12/11 03:38:25;;;;;;;29.05;5.65;;;10.30;99.90;;;;;;5097982;28;20525;-70
2023/12/11 03:40:50;;;;;;;28.23;5.05;;;10.30;99.90;;;;;;5099840;28;20028;-70
2023/12/11 03:43:16;;;;;;;30.05;5.47;;;10.30;99.90;;;;;;5101132;28;20772;-70
2023/12/11 03:45:41;;;;;;;42.47;6.25;;;10.30;99.90;;;;;;5091006;28;20020;-70
2023/12/11 03:48:07;;;;;;;28.83;4.20;;;10.30;99.90;;;;;;5097513;28;20039;-71
2023/12/11 03:50:33;;;;;;;26.67;6.20;;;10.30;99.90;;;;;;5101589;28;20023;-70
2023/12/11 03:52:59;;;;;;;27.20;3.83;;;10.30;99.90;;;;;;5101371;28;20059;-70
2023/12/11 03:55:25;;;;;;;25.42;4.13;;;10.30;99.90;;;;;;5097953;28;20037;-70
2023/12/11 03:57:50;;;;;;;17.02;3.92;;;10.30;99.90;;;;;;5099430;28;20032;-70
2023/12/11 04:00:16;;;;;;;26.15;4.95;;;10.40;99.90;;;;;;5098664;28;20039;-70
2023/12/11 04:02:42;;;;;;;26.88;4.95;;;10.40;99.90;;;;;;5100215;28;20027;-70
2023/12/11 04:05:08;;;;;;;19.85;3.35;;;10.40;99.90;;;;;;5100019;28;20550;-70
2023/12/11 04:07:34;;;;;;;14.25;2.63;;;10.50;99.90;;;;;;5099155;28;20099;-70
2023/12/11 04:09:59;;;;;;;22.42;4.35;;;10.50;99.90;;;;;;5097115;28;20127;-70
2023/12/11 04:12:25;;;;;;;18.90;4.28;;;10.50;99.90;;;;;;5102384;28;20103;-70
2023/12/11 04:14:50;;;;;;;17.25;3.15;;;10.50;99.90;;;;;;5099426;28;20111;-70
2023/12/11 04:17:16;;;;;;;25.38;4.95;;;10.50;99.90;;;;;;5098029;28;20024;-70
2023/12/11 04:19:41;;;;;;;27.92;4.57;;;10.50;99.90;;;;;;5101554;28;20065;-70
2023/12/11 04:22:07;;;;;;;20.92;4.15;;;10.50;99.90;;;;;;5097141;28;20032;-71
2023/12/11 04:24:33;;;;;;;22.10;4.93;;;10.60;99.90;;;;;;5098909;28;20024;-70
2023/12/11 04:26:58;;;;;;;24.75;6.00;;;10.60;99.90;;;;;;5097294;28;20028;-70
2023/12/11 04:29:24;;;;;;;32.45;6.63;;;10.60;99.90;;;;;;5093475;28;20119;-70
2023/12/11 04:31:49;;;;;;;27.38;5.85;;;10.60;99.90;;;;;;5101199;28;20061;-70
2023/12/11 04:34:15;;;;;;;24.20;6.53;;;10.60;99.90;;;;;;5101402;28;20030;-70
2023/12/11 04:36:42;;;;;;;26.95;6.95;;;10.60;99.90;;;;;;5097550;28;20028;-70
2023/12/11 04:39:08;;;;;;;28.33;5.60;;;10.60;99.90;;;;;;5103693;28;20027;-70
2023/12/11 04:41:33;;;;;;;36.90;7.30;;;10.60;99.90;;;;;;5101763;28;20027;-70
2023/12/11 04:43:59;;;;;;;31.42;6.88;;;10.60;99.90;;;;;;5101054;28;20570;-72
2023/12/11 04:46:25;;;;;;;30.92;5.35;;;10.60;99.90;;;;;;5103488;28;20032;-72
2023/12/11 04:48:50;;;;;;;27.08;5.18;;;10.60;99.90;;;;;;5101672;28;20031;-72
2023/12/11 04:51:16;;;;;;;33.28;5.28;;;10.60;99.90;;;;;;5096713;28;20035;-72
2023/12/11 04:53:41;;;;;;;32.85;5.65;;;10.60;99.90;;;;;;5103670;28;20112;-72
2023/12/11 04:56:08;;;;;;;32.38;5.60;;;10.60;99.90;;;;;;5099499;28;20035;-72
2023/12/11 04:58:33;;;;;;;28.52;6.28;;;10.70;99.90;;;;;;5100652;28;20030;-72
2023/12/11 05:00:59;;;;;;;29.80;5.50;;;10.70;99.90;;;;;;5097180;28;20024;-72
2023/12/11 05:03:25;;;;;;;34.45;5.65;;;10.70;99.90;;;;;;5104312;28;20039;-72
2023/12/11 05:05:50;;;;;;;26.30;5.45;;;10.70;99.90;;;;;;5097035;28;20029;-72
2023/12/11 05:08:16;;;;;;;27.30;5.85;;;10.70;99.90;;;;;;5099653;28;20498;-72
2023/12/11 05:10:42;;;;;;;29.80;5.43;;;10.70;99.90;;;;;;5106255;28;20027;-72
2023/12/11 05:13:07;;;;;;;26.42;4.97;;;10.80;99.90;;;;;;5103267;28;20364;-72
2023/12/11 05:15:33;;;;;;;33.72;6.15;;;10.80;99.90;;;;;;5102075;28;20027;-72
2023/12/11 05:17:58;;;;;;;30.48;6.65;;;10.80;99.90;;;;;;5098994;28;20031;-72
2023/12/11 05:20:24;;;;;;;36.92;6.15;;;10.80;99.90;;;;;;5105056;28;20038;-72
2023/12/11 05:22:50;;;;;;;28.77;6.25;;;10.80;99.90;;;;;;5105173;28;20051;-72
2023/12/11 05:25:15;;;;;;;30.35;6.20;;;10.80;99.90;;;;;;5107833;28;20055;-72
2023/12/11 05:27:41;;;;;;;25.73;5.43;;;10.80;99.90;;;;;;5105856;28;20076;-72
2023/12/11 05:30:07;;;;;;;43.45;6.18;;;10.80;99.90;;;;;;5095580;28;20068;-72
2023/12/11 05:32:33;;;;;;;31.52;5.78;;;10.80;99.90;;;;;;5097729;28;20031;-72
2023/12/11 05:34:58;;;;;;;25.73;6.03;;;10.80;99.90;;;;;;5091363;28;20037;-72
2023/12/11 05:37:24;;;;;;;30.95;5.40;;;10.80;99.90;;;;;;5095103;28;20020;-72
2023/12/11 05:39:50;;;;;;;27.42;4.78;;;10.80;99.90;;;;;;5102421;28;20026;-72
2023/12/11 05:42:15;;;;;;;24.50;5.38;;;10.80;99.90;;;;;;5104225;28;20031;-72
2023/12/11 05:44:41;;;;;;;37.72;7.18;;;10.80;99.90;;;;;;5090197;28;20437;-72
2023/12/11 05:47:06;;;;;;;31.27;5.40;;;10.80;99.90;;;;;;5095592;28;20031;-72
2023/12/11 05:49:32;;;;;;;39.65;5.70;;;10.80;99.90;;;;;;5097289;28;20035;-72
2023/12/11 05:51:58;;;;;;;31.90;6.13;;;10.80;99.90;;;;;;5090607;28;20452;-72
2023/12/11 05:54:23;;;;;;;34.78;5.15;;;10.80;99.90;;;;;;5097171;28;20100;-73
2023/12/11 05:56:49;;;;;;;28.00;5.30;;;10.80;99.90;;;;;;5097696;28;20149;-72
2023/12/11 05:59:14;;;;;;;31.83;6.57;;;10.80;99.90;;;;;;5092142;28;20034;-72
2023/12/11 06:01:40;;;;;;;27.60;5.57;;;10.80;99.90;;;;;;5089237;28;20052;-72
2023/12/11 06:04:06;;;;;;;27.45;5.00;;;10.90;99.90;;;;;;5098174;28;20028;-72
2023/12/11 06:06:31;;;;;;;28.00;4.68;;;10.90;99.90;;;;;;5102564;28;20035;-72
2023/12/11 06:08:57;;;;;;;32.47;5.78;;;10.90;99.90;;;;;;5097538;28;20036;-72
2023/12/11 06:11:22;;;;;;;26.58;4.45;;;10.90;99.90;;;;;;5098402;28;20019;-72
2023/12/11 06:13:48;;;;;;;22.23;4.32;;;10.90;99.90;;;;;;5098117;28;20363;-72
2023/12/11 06:16:14;;;;;;;19.90;4.20;;;10.90;99.90;;;;;;5087131;28;20029;-72
2023/12/11 06:18:41;;;;;;;27.40;5.22;;;10.90;99.90;;;;;;5104063;28;20028;-72
2023/12/11 06:21:06;;;;;;;27.77;4.80;;;10.80;99.90;;;;;;5099403;28;20452;-72
2023/12/11 06:23:32;;;;;;;27.08;4.75;;;10.80;99.90;;;;;;5100909;28;20031;-72
2023/12/11 06:25:57;;;;;;;25.83;4.78;;;10.80;99.90;;;;;;5097326;28;20372;-72
2023/12/11 06:28:23;;;;;;;28.45;5.00;;;10.70;99.90;;;;;;5089682;28;20064;-71
2023/12/11 06:30:48;;;;;;;28.88;4.07;;;10.70;99.90;;;;;;5096042;28;20024;-70
2023/12/11 06:33:15;;;;;;;22.40;4.55;;;10.70;99.90;;;;;;5097042;28;20488;-70
2023/12/11 06:35:40;;;;;;;24.35;5.13;;;10.70;99.90;;;;;;5102366;28;20020;-70
2023/12/11 06:38:06;;;;;;;27.73;5.15;;;10.60;99.90;;;;;;5098317;28;20452;-70
2023/12/11 06:40:31;;;;;;;28.73;4.10;;;10.60;99.90;;;;;;5100946;28;20458;-70
2023/12/11 06:42:57;;;;;;;27.23;4.85;;;10.60;99.90;;;;;;5099415;28;20069;-70
2023/12/11 06:45:22;;;;;;;36.53;6.10;;;10.50;99.90;;;;;;5099556;28;20230;-70
2023/12/11 06:47:48;;;;;;;30.35;4.50;;;10.50;99.90;;;;;;5099724;28;20022;-70
2023/12/11 06:50:14;;;;;;;26.65;4.47;;;10.50;99.90;;;;;;5098336;28;20495;-70
2023/12/11 06:52:39;;;;;;;28.20;5.20;;;10.50;99.90;;;;;;5099598;28;20012;-70
2023/12/11 06:55:05;;;;;;;29.92;5.30;;;10.50;99.90;;;;;;5099806;28;20028;-70
2023/12/11 06:57:31;;;;;;;22.63;4.20;;;10.50;99.90;;;;;;5098669;28;21448;-70
2023/12/11 06:59:57;;;;;;;23.10;4.00;;;10.50;99.90;;;;;;5088006;28;20028;-70
2023/12/11 07:02:22;;;;;;;25.42;4.93;;;10.50;99.90;;;;;;5089815;28;20505;-70
2023/12/11 07:04:48;;;;;;;23.35;3.60;;;10.50;99.90;;;;;;5101288;28;20035;-70
2023/12/11 07:07:14;;;;;;;25.27;4.40;;;10.50;99.90;;;;;;5098008;28;20019;-70
2023/12/11 07:09:40;;;;;;;24.42;4.85;;;10.50;99.90;;;;;;5094041;28;20082;-70
2023/12/11 07:12:06;;;;;;;28.23;5.35;;;10.50;99.90;;;;;;5100528;28;20418;-70
2023/12/11 07:14:31;;;;;;;35.88;6.13;;;10.50;99.90;;;;;;5096528;28;20035;-70
2023/12/11 07:16:57;;;;;;;23.48;4.40;;;10.50;99.90;;;;;;5102109;28;20028;-70
2023/12/11 07:19:22;;;;;;;17.20;3.75;;;10.60;99.90;;;;;;5096929;28;20103;-70
2023/12/11 07:21:48;;;;;;;20.90;4.15;;;10.60;99.90;;;;;;5099421;28;20100;-70
2023/12/11 07:24:14;;;;;;;26.05;4.45;;;10.60;99.90;;;;;;5100668;28;20032;-70
2023/12/11 07:26:40;;;;;;;25.85;4.25;;;10.60;99.90;;;;;;5100012;28;20024;-70
2023/12/11 07:29:07;;;;;;;21.83;4.60;;;10.60;99.90;;;;;;5090562;28;20055;-70
2023/12/11 07:31:33;;;;;;;29.60;5.30;;;10.60;99.90;;;;;;5101152;28;20026;-70
2023/12/11 07:33:59;;;;;;;22.20;4.07;;;10.70;99.90;;;;;;5095271;28;20031;-70
2023/12/11 07:36:24;;;;;;;21.92;4.20;;;10.60;99.90;;;;;;5100479;28;20035;-70
2023/12/11 07:38:50;;;;;;;27.88;4.13;;;10.60;99.90;;;;;;5101286;28;20028;-70
2023/12/11 07:41:20;;;;;;;23.77;4.50;;;10.60;99.90;;;;;;5098442;28;20387;-70
2023/12/11 07:43:46;;;;;;;16.15;3.67;;;10.50;99.90;;;;;;5099865;28;20020;-70
2023/12/11 07:46:19;;;;;;;15.75;2.58;;;10.40;99.90;;;;;;5097281;28;21069;-70
2023/12/11 07:48:45;;;;;;;24.92;3.47;;;10.40;99.90;;;;;;5096581;28;20036;-70
2023/12/11 07:51:23;;;;;;;14.70;2.67;;;10.40;99.90;;;;;;5096077;28;20020;-70
2023/12/11 07:53:49;;;;;;;16.30;2.80;;;10.40;99.90;;;;;;5094505;28;20480;-71
2023/12/11 07:56:22;;;;;;;13.50;2.05;;;10.50;99.90;;;;;;5094162;28;20486;-70
2023/12/11 07:58:48;;;;;;;17.45;2.85;;;10.50;99.90;;;;;;5090918;28;20028;-70
2023/12/11 08:01:13;;;;;;;12.90;2.83;;;10.50;99.90;;;;;;5095893;28;20023;-71
2023/12/11 08:03:39;;;;;;;10.18;1.90;;;10.50;99.90;;;;;;5091193;28;20055;-73
2023/12/11 08:06:05;;;;;;;17.70;4.43;;;10.50;99.90;;;;;;5083028;28;20027;-73
2023/12/11 08:08:31;;;;;;;18.52;2.88;;;10.50;99.90;;;;;;5100164;28;20024;-73
2023/12/11 08:10:56;;;;;;;19.00;3.78;;;10.50;99.90;;;;;;5104418;28;20070;-73
2023/12/11 08:13:22;;;;;;;11.20;2.63;;;10.50;99.90;;;;;;5106210;28;20020;-74
2023/12/11 08:15:47;;;;;;;16.83;2.95;;;10.50;99.90;;;;;;5107618;28;20047;-73
2023/12/11 08:18:16;;;;;;;13.48;2.85;;;10.50;99.90;;;;;;5097439;28;20351;-73
2023/12/11 08:20:42;;;;;;;20.30;3.65;;;10.50;99.90;;;;;;5103934;28;20107;-73
2023/12/11 08:23:07;;;;;;;18.45;3.10;;;10.40;99.90;;;;;;5107355;28;20095;-74
2023/12/11 08:25:33;;;;;;;11.65;3.30;;;10.30;99.90;;;;;;5095592;28;20020;-74
2023/12/11 08:27:59;;;;;;;13.25;2.85;;;10.20;99.90;;;;;;5094511;28;20142;-74
2023/12/11 08:30:24;;;;;;;15.35;3.20;;;10.10;99.90;;;;;;5099571;28;20078;-74
2023/12/11 08:32:50;;;;;;;20.13;3.80;;;10.10;99.90;;;;;;5103301;28;20106;-74
2023/12/11 08:35:16;;;;;;;18.02;3.42;;;10.00;99.90;;;;;;5093787;28;20054;-74
2023/12/11 08:37:43;;;;;;;22.25;3.03;;;10.00;99.90;;;;;;5104178;28;20048;-73
2023/12/11 08:40:09;;;;;;;16.20;3.55;;;10.00;99.90;;;;;;5104652;28;20048;-74
2023/12/11 08:42:37;;;;;;;9.25;2.33;;;10.00;99.90;;;;;;5105132;28;20026;-74
2023/12/11 08:45:03;;;;;;;15.02;2.92;;;10.00;99.90;;;;;;5097518;28;20024;-74
2023/12/11 08:47:29;;;;;;;11.38;2.42;;;10.00;99.90;;;;;;5098008;28;20115;-74
2023/12/11 08:49:55;;;;;;;12.85;2.35;;;10.10;99.90;;;;;;5101045;28;20114;-74
2023/12/11 08:52:20;;;;;;;12.15;2.50;;;10.10;99.90;;;;;;5102917;28;20106;-74
2023/12/11 08:54:47;;;;;;;17.25;3.13;;;10.10;99.90;;;;;;5101734;28;20020;-73
2023/12/11 08:57:12;;;;;;;12.43;2.33;;;10.10;99.90;;;;;;5099725;28;20020;-73
2023/12/11 08:59:38;;;;;;;11.48;3.10;;;10.20;99.90;;;;;;5100375;28;20073;-73
2023/12/11 09:02:03;;;;;;;14.27;3.90;;;10.20;99.90;;;;;;5099533;28;20064;-74
2023/12/11 09:04:29;;;;;;;13.90;3.10;;;10.20;99.90;;;;;;5104225;28;20069;-73
2023/12/11 09:06:54;;;;;;;11.93;2.35;;;10.30;99.90;;;;;;5097199;28;20499;-73
2023/12/11 09:09:20;;;;;;;10.93;2.53;;;10.30;99.90;;;;;;5103586;28;20031;-73
2023/12/11 09:11:46;;;;;;;9.98;2.00;;;10.30;99.90;;;;;;5101593;28;20026;-73
2023/12/11 09:14:11;;;;;;;10.25;1.70;;;10.40;99.90;;;;;;5100828;28;20027;-73
2023/12/11 09:16:37;;;;;;;9.60;1.75;;;10.40;99.90;;;;;;5098830;28;20052;-72
2023/12/11 09:19:03;;;;;;;7.22;1.77;;;10.40;99.90;;;;;;5096643;28;20380;-74
2023/12/11 09:21:28;;;;;;;13.43;2.15;;;10.50;99.90;;;;;;5097889;28;20038;-74
2023/12/11 09:23:54;;;;;;;7.97;1.70;;;10.50;99.90;;;;;;5101865;28;20040;-74
2023/12/11 09:26:19;;;;;;;9.30;2.10;;;10.50;99.90;;;;;;5100608;28;20024;-74
2023/12/11 09:28:45;;;;;;;8.63;1.85;;;10.50;99.90;;;;;;5101145;28;20040;-74
2023/12/11 09:31:11;;;;;;;8.68;1.63;;;10.60;99.90;;;;;;5093958;28;20111;-74
2023/12/11 09:33:40;;;;;;;5.28;1.85;;;10.60;99.90;;;;;;5101807;28;20374;-74
2023/12/11 09:36:06;;;;;;;7.28;2.03;;;10.60;99.90;;;;;;5098825;28;20019;-74
2023/12/11 09:38:31;;;;;;;7.40;1.85;;;10.60;99.90;;;;;;5101695;28;20487;-74
2023/12/11 09:40:57;;;;;;;9.55;1.88;;;10.60;99.90;;;;;;5097156;28;20030;-74
2023/12/11 09:43:23;;;;;;;12.55;2.25;;;10.60;99.90;;;;;;5102703;28;20077;-74
2023/12/11 09:45:51;;;;;;;11.95;1.63;;;10.60;99.90;;;;;;5090249;28;20045;-74
2023/12/11 09:48:17;;;;;;;9.25;1.50;;;10.60;99.90;;;;;;5098616;28;20519;-74
2023/12/11 09:50:43;;;;;;;11.18;2.15;;;10.70;99.90;;;;;;5102375;28;20020;-74
2023/12/11 09:53:10;;;;;;;12.35;2.80;;;10.70;99.90;;;;;;5096170;28;20054;-75
2023/12/11 09:55:35;;;;;;;10.57;2.17;;;10.70;99.90;;;;;;5096004;28;20024;-75
2023/12/11 09:58:03;;;;;;;10.60;1.58;;;10.70;99.90;;;;;;5103140;28;20024;-74
2023/12/11 10:00:29;;;;;;;12.98;2.40;;;10.80;99.90;;;;;;5091163;28;20016;-74
2023/12/11 10:02:55;;;;;;;14.75;2.55;;;10.80;99.90;;;;;;5102262;28;20439;-74
2023/12/11 10:05:25;;;;;;;9.10;1.85;;;10.80;99.90;;;;;;5097931;28;20490;-74
2023/12/11 10:07:51;;;;;;;11.30;2.47;;;10.80;99.90;;;;;;5101110;28;20023;-74
2023/12/11 10:10:28;;;;;;;10.52;2.20;;;10.80;99.90;;;;;;5092551;28;20597;-76
2023/12/11 10:12:54;;;;;;;15.23;3.35;;;10.70;99.90;;;;;;5101368;28;20035;-75
2023/12/11 10:15:28;;;;;;;15.82;3.25;;;10.60;99.90;;;;;;5099316;28;20031;-75
2023/12/11 10:18:03;;;;;;;12.95;2.50;;;10.50;99.90;;;;;;5099678;28;20027;-75
2023/12/11 10:20:29;;;;;;;14.65;2.95;;;10.40;99.90;;;;;;5093764;28;20022;-74
2023/12/11 10:22:55;;;;;;;10.25;2.30;;;10.40;99.90;;;;;;5100252;28;20131;-74
2023/12/11 10:25:28;;;;;;;18.38;2.92;;;10.30;99.90;;;;;;5100124;28;20543;-74
2023/12/11 10:28:11;;;;;;;15.25;2.92;;;10.40;99.90;;;;;;5098206;28;20080;-74
2023/12/11 10:30:51;;;;;;;16.42;3.63;;;10.50;99.90;;;;;;5096113;28;20024;-74
2023/12/11 10:33:21;;;;;;;13.05;2.70;;;10.40;99.90;;;;;;5098641;28;20086;-74
2023/12/11 10:35:47;;;;;;;14.38;2.50;;;10.40;99.90;;;;;;5099301;28;20040;-75
2023/12/11 10:38:23;;;;;;;13.45;2.83;;;10.50;99.90;;;;;;5100304;28;20356;-75
2023/12/11 10:40:49;;;;;;;20.02;3.65;;;10.60;99.90;;;;;;5097707;28;20027;-76
2023/12/11 10:43:15;;;;;;;15.27;3.00;;;10.50;99.90;;;;;;5099870;28;20098;-74
2023/12/11 10:45:41;;;;;;;16.73;3.35;;;10.60;99.90;;;;;;5100799;28;20164;-74
2023/12/11 10:48:07;;;;;;;14.77;3.63;;;10.60;99.90;;;;;;5098389;28;20027;-74
2023/12/11 10:50:33;;;;;;;13.25;2.90;;;10.60;99.90;;;;;;5094849;28;20928;-75
2023/12/11 10:53:01;;;;;;;14.25;2.95;;;10.60;99.90;;;;;;5095635;28;20399;-74
2023/12/11 10:55:26;;;;;;;9.18;2.35;;;10.60;99.90;;;;;;5099405;28;20016;-74
2023/12/11 10:57:53;;;;;;;19.08;3.28;;;10.60;99.90;;;;;;5092591;28;20476;-74
2023/12/11 11:00:20;;;;;;;14.57;2.72;;;10.60;99.90;;;;;;5097557;28;20035;-74
2023/12/11 11:02:48;;;;;;;14.63;3.03;;;10.70;99.90;;;;;;5095070;28;20162;-74
2023/12/11 11:05:14;;;;;;;12.90;3.08;;;10.70;99.90;;;;;;5098004;28;20035;-73
2023/12/11 11:07:49;;;;;;;17.23;3.13;;;10.70;99.90;;;;;;5090878;28;20030;-72
2023/12/11 11:10:20;;;;;;;15.10;2.90;;;10.70;99.90;;;;;;5088055;28;20318;-72
2023/12/11 11:13:02;;;;;;;17.50;3.75;;;10.80;99.90;;;;;;5095400;28;20404;-73
2023/12/11 11:15:28;;;;;;;15.90;3.28;;;10.80;99.90;;;;;;5095643;28;20118;-73
2023/12/11 11:18:09;;;;;;;7.03;1.80;;;10.80;99.90;;;;;;5097674;28;20031;-73
2023/12/11 11:20:36;;;;;;;13.27;2.03;;;10.80;99.90;;;;;;5100575;28;20027;-73
2023/12/11 11:23:18;;;;;;;12.00;2.47;;;10.70;99.90;;;;;;5092385;28;20024;-73
2023/12/11 11:25:52;;;;;;;11.18;1.95;;;10.60;99.90;;;;;;5096744;28;20019;-73
2023/12/11 11:28:38;;;;;;;;;;;10.40;99.90;;;;;;5095497;28;20031;-73
2023/12/11 11:31:04;;;;;;;10.00;1.88;;;10.30;99.90;;;;;;5090994;28;19909;-73
2023/12/11 11:33:50;;;;;;;7.65;1.70;;;10.30;99.90;;;;;;5098591;28;20106;-73
2023/12/11 11:36:21;;;;;;;10.75;2.30;;;10.30;99.90;;;;;;5092362;28;20016;-73
2023/12/11 11:38:59;;;;;;;9.65;1.80;;;10.20;99.90;;;;;;5094136;28;20502;-73
2023/12/11 11:41:29;;;;;;;11.48;1.85;;;10.30;99.90;;;;;;5089574;28;20015;-73
2023/12/11 11:44:07;;;;;;;11.88;2.55;;;10.30;99.90;;;;;;5090446;28;20498;-73
2023/12/11 11:46:55;;;;;;;10.98;1.83;;;10.40;99.90;;;;;;5085980;28;20126;-73
2023/12/11 11:49:28;;;;;;;10.88;2.03;;;10.40;99.90;;;;;;5089984;28;20126;-73
2023/12/11 11:51:54;;;;;;;7.17;1.20;;;10.40;99.90;;;;;;5086899;28;20066;-72
2023/12/11 11:54:24;;;;;;;10.30;1.40;;;10.50;99.90;;;;;;5093614;28;20042;-72
2023/12/11 11:56:50;;;;;;;11.43;1.45;;;10.50;99.90;;;;;;5092836;28;20025;-72
2023/12/11 11:59:17;;;;;;;13.27;2.55;;;10.60;99.90;;;;;;5096971;28;20064;-72
2023/12/11 12:01:53;;;;;;;9.55;1.58;;;10.60;99.90;;;;;;5098403;28;20048;-72
2023/12/11 12:04:25;;;;;;;13.68;2.22;;;10.70;99.90;;;;;;5088719;28;20047;-72
2023/12/11 12:06:51;;;;;;;9.52;2.33;;;10.80;99.90;;;;;;5093434;28;20031;-72
2023/12/11 12:09:19;;;;;;;9.82;2.13;;;10.80;99.90;;;;;;5090926;28;21098;-72
2023/12/11 12:11:45;;;;;;;10.45;1.50;;;10.90;99.90;;;;;;5093153;28;20020;-72
2023/12/11 12:14:14;;;;;;;14.30;1.67;;;10.90;99.90;;;;;;5095989;28;20068;-72
2023/12/11 12:16:40;;;;;;;10.95;2.30;;;10.90;99.90;;;;;;5091536;28;20017;-72
2023/12/11 12:19:06;;;;;;;9.50;2.53;;;10.90;99.90;;;;;;5101066;28;20028;-72
2023/12/11 12:21:33;;;;;;;11.27;1.90;;;10.90;99.90;;;;;;5092648;28;20118;-72
2023/12/11 12:24:06;;;;;;;14.80;2.97;;;10.90;99.90;;;;;;5089790;28;20126;-72
2023/12/11 12:26:34;;;;;;;9.82;2.22;;;10.90;99.90;;;;;;5083308;28;20016;-72
2023/12/11 12:29:00;;;;;;;9.45;2.47;;;10.90;99.90;;;;;;5095593;28;20043;-71
2023/12/11 12:31:26;;;;;;;12.48;2.67;;;10.90;99.90;;;;;;5099043;28;20027;-73
2023/12/11 12:33:52;;;;;;;9.15;2.35;;;10.90;99.90;;;;;;5092172;28;20024;-72
2023/12/11 12:36:18;;;;;;;10.20;2.92;;;10.80;99.90;;;;;;5100794;28;20431;-73